createdAt,value
2022-10-11T00:01:14.387Z,1.08
2022-10-11T00:04:16.804Z,1.08
2022-10-11T00:07:20.720Z,1.17
2022-10-11T00:10:23.024Z,1.20
2022-10-11T00:13:25.678Z,1.40
2022-10-11T00:16:27.898Z,0.98
2022-10-11T00:19:30.209Z,0.85
2022-10-11T00:22:34.688Z,0.98
2022-10-11T00:25:37.068Z,1.23
2022-10-11T00:28:40.426Z,1.15
2022-10-11T00:31:42.732Z,0.90
2022-10-11T00:34:44.994Z,1.08
2022-10-11T00:37:48.601Z,0.73
2022-10-11T00:40:50.771Z,0.80
2022-10-11T00:44:08.532Z,1.20
2022-10-11T00:47:13.303Z,1.20
2022-10-11T00:50:15.595Z,1.00
2022-10-11T00:53:19.235Z,1.35
2022-10-11T00:56:25.152Z,0.98
2022-10-11T00:59:30.220Z,1.42
2022-10-11T01:02:32.552Z,1.13
2022-10-11T01:05:36.662Z,2.67
2022-10-11T01:08:40.528Z,2.08
2022-10-11T01:11:43.954Z,1.10
2022-10-11T01:15:05.887Z,1.02
2022-10-11T01:18:15.239Z,1.25
2022-10-11T01:21:25.786Z,1.15
2022-10-11T01:24:42.388Z,0.95
2022-10-11T01:27:52.187Z,1.23
2022-10-11T01:31:01.934Z,0.70
2022-10-11T01:34:06.559Z,1.15
2022-10-11T01:37:13.093Z,0.90
2022-10-11T01:40:19.554Z,1.10
2022-10-11T01:43:22.972Z,0.98
2022-10-11T01:46:27.406Z,1.02
2022-10-11T01:49:29.572Z,1.33
2022-10-11T01:52:33.832Z,1.95
2022-10-11T01:55:39.638Z,1.10
2022-10-11T01:58:54.503Z,0.88
2022-10-11T02:02:08.923Z,1.58
2022-10-11T02:05:18.743Z,1.10
2022-10-11T02:08:26.618Z,0.75
2022-10-11T02:11:30.812Z,1.20
2022-10-11T02:14:35.624Z,1.10
2022-10-11T02:17:41.589Z,1.30
2022-10-11T02:20:45.428Z,1.15
2022-10-11T02:23:50.183Z,0.63
2022-10-11T02:26:54.614Z,1.98
2022-10-11T02:29:59.783Z,1.55
2022-10-11T02:33:06.476Z,0.98
2022-10-11T02:36:13.109Z,0.88
2022-10-11T02:39:19.607Z,0.80
2022-10-11T02:42:26.909Z,1.00
2022-10-11T02:45:31.964Z,1.15
2022-10-11T02:48:36.217Z,0.98
2022-10-11T02:51:38.802Z,1.00
2022-10-11T02:54:41.004Z,0.80
2022-10-11T02:57:43.197Z,0.80
2022-10-11T03:00:45.450Z,0.70
2022-10-11T03:03:49.180Z,1.00
2022-10-11T03:06:51.432Z,1.10
2022-10-11T03:09:53.651Z,1.30
2022-10-11T03:12:55.812Z,1.08
2022-10-11T03:16:03.191Z,1.02
2022-10-11T03:19:07.305Z,0.70
2022-10-11T03:22:12.586Z,1.27
2022-10-11T03:25:14.884Z,0.95
2022-10-11T03:28:17.063Z,0.77
2022-10-11T03:31:20.549Z,1.38
2022-10-11T03:34:24.238Z,1.35
2022-10-11T03:37:26.611Z,1.20
2022-10-11T03:40:28.859Z,1.42
2022-10-11T03:43:31.079Z,0.80
2022-10-11T03:46:34.103Z,1.40
2022-10-11T03:49:42.585Z,0.93
2022-10-11T03:52:45.710Z,1.00
2022-10-11T03:55:52.138Z,1.45
2022-10-11T03:58:54.414Z,2.08
2022-10-11T04:01:57.015Z,1.50
2022-10-11T04:05:01.691Z,1.65
2022-10-11T04:08:07.315Z,1.80
2022-10-11T04:11:12.063Z,2.53
2022-10-11T04:14:14.625Z,1.40
2022-10-11T04:17:17.110Z,1.27
2022-10-11T04:20:21.879Z,1.55
2022-10-11T04:23:24.107Z,1.20
2022-10-11T04:26:26.415Z,1.33
2022-10-11T04:29:32.353Z,1.65
2022-10-11T04:32:35.061Z,0.93
2022-10-11T04:35:41.427Z,2.92
2022-10-11T04:38:56.168Z,1.50
2022-10-11T04:42:46.995Z,1.25
2022-10-11T04:46:42.709Z,2.10
2022-10-11T04:53:20.445Z,1.73
2022-10-11T04:56:32.028Z,1.77
2022-10-11T04:59:37.038Z,2.03
2022-10-11T05:02:39.498Z,1.85
2022-10-11T05:05:44.063Z,1.50
2022-10-11T05:08:47.881Z,1.38
2022-10-11T05:11:50.155Z,2.30
2022-10-11T05:14:52.456Z,2.55
2022-10-11T05:17:54.721Z,2.05
2022-10-11T05:21:16.159Z,2.22
2022-10-11T05:24:19.731Z,2.50
2022-10-11T05:27:22.015Z,2.22
2022-10-11T05:30:24.210Z,2.83
2022-10-11T05:33:26.940Z,2.72
2022-10-11T05:36:29.188Z,2.45
2022-10-11T05:39:32.826Z,2.20
2022-10-11T05:42:35.038Z,2.95
2022-10-11T05:45:38.091Z,3.72
2022-10-11T05:48:40.257Z,3.15
2022-10-11T05:51:42.490Z,3.80
2022-10-11T05:54:46.215Z,3.30
2022-10-11T05:57:48.377Z,3.05
2022-10-11T06:00:50.594Z,3.25
2022-10-11T06:03:52.968Z,2.38
2022-10-11T06:06:55.132Z,2.83
2022-10-11T06:09:58.650Z,3.50
2022-10-11T06:13:01.129Z,3.35
2022-10-11T06:16:04.501Z,3.75
2022-10-11T06:19:06.862Z,6.75
2022-10-11T06:22:11.030Z,5.53
2022-10-11T06:25:14.818Z,9.88
2022-10-11T06:28:17.076Z,10.52
2022-10-11T06:31:19.317Z,12.00
2022-10-11T06:34:21.648Z,12.68
2022-10-11T06:37:23.960Z,12.25
2022-10-11T06:40:27.714Z,10.18
2022-10-11T06:43:30.019Z,11.20
2022-10-11T06:46:33.194Z,13.63
2022-10-11T06:49:35.503Z,11.63
2022-10-11T06:52:38.488Z,12.98
2022-10-11T06:55:42.136Z,13.27
2022-10-11T06:58:44.794Z,18.60
2022-10-11T07:01:49.685Z,21.92
2022-10-11T07:04:54.036Z,21.42
2022-10-11T07:07:56.252Z,22.77
2022-10-11T07:11:04.746Z,24.85
2022-10-11T07:14:07.999Z,23.30
2022-10-11T07:17:12.661Z,21.30
2022-10-11T07:20:14.860Z,22.08
2022-10-11T07:23:17.101Z,25.60
2022-10-11T07:26:21.191Z,24.88
2022-10-11T07:29:23.537Z,23.70
2022-10-11T07:32:25.935Z,21.88
2022-10-11T07:35:28.206Z,24.20
2022-10-11T07:38:32.789Z,25.48
2022-10-11T07:41:39.661Z,26.60
2022-10-11T07:44:44.065Z,28.10
2022-10-11T07:47:46.568Z,27.70
2022-10-11T07:50:49.034Z,30.40
2022-10-11T07:53:52.584Z,25.50
2022-10-11T07:56:56.255Z,23.77
2022-10-11T07:59:58.504Z,23.55
2022-10-11T08:03:02.618Z,22.70
2022-10-11T08:06:12.129Z,23.55
2022-10-11T08:09:16.398Z,22.90
2022-10-11T08:12:20.089Z,21.67
2022-10-11T08:15:22.499Z,20.48
2022-10-11T08:18:24.912Z,21.98
2022-10-11T08:21:30.301Z,21.13
2022-10-11T08:24:41.902Z,20.10
2022-10-11T08:27:47.882Z,20.50
2022-10-11T08:30:52.505Z,19.90
2022-10-11T08:33:55.793Z,20.35
2022-10-11T08:36:58.344Z,19.45
2022-10-11T08:40:05.858Z,21.80
2022-10-11T08:43:18.278Z,18.73
2022-10-11T08:46:23.755Z,20.65
2022-10-11T08:49:53.346Z,20.75
2022-10-11T08:53:57.361Z,19.77
2022-10-11T08:57:12.366Z,21.88
2022-10-11T09:00:17.901Z,20.83
2022-10-11T09:03:26.244Z,21.40
2022-10-11T09:07:05.016Z,24.52
2022-10-11T09:11:01.374Z,23.52
2022-10-11T09:14:22.305Z,22.23
2022-10-11T09:17:42.745Z,21.77
2022-10-11T09:21:13.804Z,20.65
2022-10-11T09:24:34.494Z,20.65
2022-10-11T09:28:01.687Z,21.08
2022-10-11T09:31:09.454Z,21.88
2022-10-11T09:34:15.244Z,20.40
2022-10-11T09:37:22.304Z,19.45
2022-10-11T09:40:42.887Z,22.38
2022-10-11T09:43:46.383Z,21.25
2022-10-11T09:46:49.687Z,19.80
2022-10-11T09:49:57.514Z,19.60
2022-10-11T09:53:01.765Z,20.55
2022-10-11T09:56:05.228Z,20.35
2022-10-11T09:59:10.057Z,20.90
2022-10-11T10:02:21.099Z,20.50
2022-10-11T10:05:26.294Z,19.63
2022-10-11T10:08:28.688Z,19.42
2022-10-11T10:11:36.696Z,20.33
2022-10-11T10:14:41.522Z,19.77
2022-10-11T10:17:48.851Z,21.55
2022-10-11T10:20:55.045Z,19.63
2022-10-11T10:24:00.144Z,20.98
2022-10-11T10:27:18.527Z,21.20
2022-10-11T10:30:20.941Z,19.52
2022-10-11T10:33:24.191Z,22.33
2022-10-11T10:36:30.056Z,22.00
2022-10-11T10:39:37.618Z,20.63
2022-10-11T10:42:39.922Z,18.45
2022-10-11T10:45:59.460Z,19.55
2022-10-11T10:52:43.637Z,19.92
2022-10-11T10:55:49.242Z,19.50
2022-10-11T10:59:11.186Z,18.55
2022-10-11T11:02:38.914Z,16.90
2022-10-11T11:05:46.004Z,17.35
2022-10-11T11:08:57.547Z,15.00
2022-10-11T11:12:11.968Z,14.68
2022-10-11T11:15:19.805Z,16.27
2022-10-11T11:18:28.822Z,15.82
2022-10-11T11:21:41.364Z,15.15
2022-10-11T11:24:53.599Z,14.52
2022-10-11T11:28:04.765Z,12.40
2022-10-11T11:31:13.784Z,7.57
2022-10-11T11:34:21.918Z,8.98
2022-10-11T11:37:26.977Z,11.15
2022-10-11T11:40:35.248Z,10.02
2022-10-11T11:43:40.075Z,10.02
2022-10-11T11:46:44.842Z,9.43
2022-10-11T11:49:49.962Z,9.32
2022-10-11T11:52:54.854Z,8.55
2022-10-11T11:56:01.224Z,9.15
2022-10-11T11:59:09.004Z,9.48
2022-10-11T12:02:38.851Z,7.97
2022-10-11T12:06:19.403Z,7.00
2022-10-11T12:09:22.722Z,3.97
2022-10-11T12:12:29.477Z,2.42
2022-10-11T12:15:32.236Z,2.90
2022-10-11T12:18:37.199Z,2.97
2022-10-11T12:21:44.893Z,4.40
2022-10-11T12:24:55.161Z,3.33
2022-10-11T12:27:58.768Z,2.75
2022-10-11T12:31:04.767Z,2.88
2022-10-11T12:34:33.499Z,3.13
2022-10-11T12:37:50.529Z,3.00
2022-10-11T12:40:54.576Z,3.15
2022-10-11T12:44:15.986Z,2.65
2022-10-11T12:47:35.440Z,3.00
2022-10-11T12:50:46.849Z,4.03
2022-10-11T12:54:26.089Z,2.85
2022-10-11T12:57:46.459Z,2.78
2022-10-11T13:01:14.365Z,2.97
2022-10-11T13:04:19.402Z,2.47
2022-10-11T13:07:23.521Z,2.85
2022-10-11T13:10:30.941Z,2.60
2022-10-11T13:13:37.777Z,3.10
2022-10-11T13:16:49.066Z,2.22
2022-10-11T13:19:58.547Z,1.80
2022-10-11T13:23:01.524Z,2.03
2022-10-11T13:26:05.284Z,1.98
2022-10-11T13:29:15.104Z,1.63
2022-10-11T13:32:21.733Z,2.00
2022-10-11T13:35:28.861Z,1.80
2022-10-11T13:38:32.487Z,1.25
2022-10-11T13:41:36.062Z,1.73
2022-10-11T13:44:39.409Z,1.98
2022-10-11T13:47:41.916Z,1.30
2022-10-11T13:50:52.113Z,1.40
2022-10-11T13:53:57.582Z,1.20
2022-10-11T13:57:01.308Z,1.48
2022-10-11T14:00:09.411Z,1.70
2022-10-11T14:03:19.160Z,1.38
2022-10-11T14:06:21.482Z,1.42
2022-10-11T14:09:27.590Z,1.33
2022-10-11T14:12:35.478Z,1.30
2022-10-11T14:15:38.188Z,1.80
2022-10-11T14:18:46.128Z,1.58
2022-10-11T14:21:51.198Z,2.20
2022-10-11T14:24:53.460Z,1.80
2022-10-11T14:27:57.494Z,1.80
2022-10-11T14:30:59.715Z,1.48
2022-10-11T14:34:05.598Z,1.98
2022-10-11T14:37:08.124Z,1.30
2022-10-11T14:40:13.724Z,1.25
2022-10-11T14:43:17.346Z,1.80
2022-10-11T14:46:23.310Z,1.30
2022-10-11T14:49:27.496Z,1.85
2022-10-11T14:52:29.821Z,1.77
2022-10-11T14:55:32.457Z,1.30
2022-10-11T14:58:36.062Z,1.60
2022-10-11T15:01:38.358Z,1.63
2022-10-11T15:04:40.662Z,2.28
2022-10-11T15:07:42.917Z,1.80
2022-10-11T15:10:45.231Z,1.95
2022-10-11T15:13:49.476Z,1.98
2022-10-11T15:16:53.089Z,1.73
2022-10-11T15:19:55.575Z,1.30
2022-10-11T15:22:58.281Z,1.50
2022-10-11T15:26:00.708Z,1.52
2022-10-11T15:29:04.459Z,2.40
2022-10-11T15:32:07.031Z,1.45
2022-10-11T15:35:09.747Z,1.77
2022-10-11T15:38:17.179Z,2.53
2022-10-11T15:41:20.052Z,1.55
2022-10-11T15:44:23.789Z,1.77
2022-10-11T15:47:26.077Z,1.88
2022-10-11T15:50:39.827Z,1.55
2022-10-11T15:53:42.223Z,1.60
2022-10-11T15:56:44.485Z,1.65
2022-10-11T15:59:48.222Z,2.33
2022-10-11T16:02:50.963Z,2.00
2022-10-11T16:05:53.823Z,2.15
2022-10-11T16:08:56.108Z,2.13
2022-10-11T16:11:58.381Z,2.17
2022-10-11T16:15:02.003Z,2.55
2022-10-11T16:18:04.548Z,2.25
2022-10-11T16:21:08.991Z,2.47
2022-10-11T16:24:11.700Z,2.25
2022-10-11T16:27:17.974Z,1.90
2022-10-11T16:30:22.871Z,3.15
2022-10-11T16:33:25.275Z,2.63
2022-10-11T16:36:37.994Z,2.05
2022-10-11T16:39:41.739Z,2.70
2022-10-11T16:42:44.887Z,2.60
2022-10-11T16:45:48.530Z,2.67
2022-10-11T16:48:50.846Z,3.15
2022-10-11T16:51:54.642Z,3.42
2022-10-11T16:54:56.946Z,4.05
2022-10-11T16:57:59.224Z,4.28
2022-10-11T17:01:03.652Z,3.40
2022-10-11T17:04:06.497Z,5.60
2022-10-11T17:07:14.460Z,5.00
2022-10-11T17:10:16.878Z,6.70
2022-10-11T17:13:19.110Z,5.63
2022-10-11T17:16:22.900Z,7.35
2022-10-11T17:19:25.180Z,8.43
2022-10-11T17:22:28.525Z,17.33
2022-10-11T17:25:35.124Z,10.63
2022-10-11T17:28:38.737Z,5.68
2022-10-11T17:31:48.049Z,5.07
2022-10-11T17:34:51.645Z,4.05
2022-10-11T17:37:55.080Z,4.13
2022-10-11T17:41:01.666Z,6.88
2022-10-11T17:44:04.360Z,5.97
2022-10-11T17:47:07.990Z,6.07
2022-10-11T17:50:10.904Z,5.70
2022-10-11T17:53:13.121Z,5.15
2022-10-11T17:56:17.090Z,6.05
2022-10-11T17:59:27.230Z,5.72
2022-10-11T18:02:30.999Z,5.43
2022-10-11T18:05:33.934Z,4.65
2022-10-11T18:08:40.431Z,4.20
2022-10-11T18:11:46.844Z,4.13
2022-10-11T18:14:51.138Z,4.65
2022-10-11T18:17:56.467Z,5.07
2022-10-11T18:20:58.742Z,5.13
2022-10-11T18:24:02.447Z,7.55
2022-10-11T18:27:04.881Z,5.55
2022-10-11T18:30:09.324Z,4.80
2022-10-11T18:33:14.403Z,5.45
2022-10-11T18:36:18.534Z,5.65
2022-10-11T18:39:21.963Z,6.57
2022-10-11T18:42:24.235Z,4.88
2022-10-11T18:45:26.556Z,5.63
2022-10-11T18:48:32.520Z,5.20
2022-10-11T18:51:37.097Z,4.25
2022-10-11T18:54:39.748Z,4.78
2022-10-11T18:57:42.438Z,4.57
2022-10-11T19:00:44.965Z,4.22
2022-10-11T19:03:52.606Z,4.60
2022-10-11T19:06:55.029Z,4.50
2022-10-11T19:09:58.936Z,4.15
2022-10-11T19:13:01.317Z,5.55
2022-10-11T19:16:08.792Z,4.97
2022-10-11T19:19:13.454Z,5.70
2022-10-11T19:22:16.094Z,4.38
2022-10-11T19:25:18.431Z,6.13
2022-10-11T19:28:20.860Z,5.13
2022-10-11T19:31:23.153Z,5.60
2022-10-11T19:34:27.770Z,6.78
2022-10-11T19:37:30.413Z,8.40
2022-10-11T19:40:36.480Z,7.00
2022-10-11T19:43:40.154Z,6.60
2022-10-11T19:47:02.699Z,8.48
2022-10-11T19:50:07.881Z,8.60
2022-10-11T19:53:10.444Z,8.55
2022-10-11T19:56:14.859Z,8.98
2022-10-11T19:59:17.523Z,6.07
2022-10-11T20:02:19.919Z,6.18
2022-10-11T20:05:23.707Z,5.85
2022-10-11T20:08:26.130Z,5.85
2022-10-11T20:11:28.612Z,5.28
2022-10-11T20:14:30.972Z,5.45
2022-10-11T20:17:48.347Z,6.60
2022-10-11T20:20:53.204Z,5.85
2022-10-11T20:23:58.764Z,5.75
2022-10-11T20:27:02.484Z,5.70
2022-10-11T20:30:05.703Z,6.45
2022-10-11T20:33:07.958Z,5.82
2022-10-11T20:36:13.394Z,5.28
2022-10-11T20:39:31.539Z,5.50
2022-10-11T20:42:34.016Z,5.90
2022-10-11T20:45:36.303Z,5.95
2022-10-11T20:48:40.606Z,5.93
2022-10-11T20:51:44.287Z,5.03
2022-10-11T20:54:46.568Z,4.72
2022-10-11T20:57:49.209Z,5.78
2022-10-11T21:00:51.553Z,5.78
2022-10-11T21:03:58.599Z,5.80
2022-10-11T21:07:02.572Z,5.68
2022-10-11T21:10:05.476Z,5.63
2022-10-11T21:13:09.374Z,5.75
2022-10-11T21:16:13.402Z,5.55
2022-10-11T21:19:16.578Z,5.93
2022-10-11T21:22:20.489Z,5.97
2022-10-11T21:25:22.765Z,6.28
2022-10-11T21:28:25.137Z,5.85
2022-10-11T21:31:32.875Z,5.68
2022-10-11T21:34:36.385Z,6.22
2022-10-11T21:37:40.092Z,5.65
2022-10-11T21:40:42.409Z,5.85
2022-10-11T21:43:44.760Z,5.57
2022-10-11T21:47:07.012Z,5.10
2022-10-11T21:50:09.439Z,5.72
2022-10-11T21:53:13.252Z,5.15
2022-10-11T21:56:16.682Z,4.78
2022-10-11T21:59:19.081Z,5.38
2022-10-11T22:02:21.348Z,5.95
2022-10-11T22:05:24.465Z,6.35
2022-10-11T22:08:28.501Z,5.70
2022-10-11T22:11:31.052Z,6.53
2022-10-11T22:14:33.301Z,6.32
2022-10-11T22:17:36.337Z,6.80
2022-10-11T22:20:38.690Z,5.82
2022-10-11T22:23:43.888Z,6.13
2022-10-11T22:26:46.243Z,6.88
2022-10-11T22:29:48.415Z,9.27
2022-10-11T22:32:50.781Z,7.90
2022-10-11T22:35:56.365Z,7.38
2022-10-11T22:38:59.994Z,6.95
2022-10-11T22:42:02.292Z,6.82
2022-10-11T22:45:05.078Z,8.30
2022-10-11T22:48:07.340Z,7.68
2022-10-11T22:51:09.615Z,6.82
2022-10-11T22:54:13.404Z,7.30
2022-10-11T22:57:15.649Z,7.55
2022-10-11T23:00:18.329Z,7.03
2022-10-11T23:03:21.157Z,7.53
2022-10-11T23:06:23.483Z,6.80
2022-10-11T23:09:28.844Z,6.93
2022-10-11T23:12:31.177Z,7.22
2022-10-11T23:15:33.411Z,6.97
2022-10-11T23:18:36.252Z,7.57
2022-10-11T23:21:38.463Z,7.13
2022-10-11T23:24:42.149Z,7.53
2022-10-11T23:27:44.399Z,7.35
2022-10-11T23:30:46.632Z,7.38
2022-10-11T23:33:48.869Z,6.82
2022-10-11T23:36:51.080Z,8.23
2022-10-11T23:39:54.733Z,8.10
2022-10-11T23:42:57.047Z,7.63
2022-10-11T23:45:59.402Z,7.20
2022-10-11T23:49:01.894Z,7.72
2022-10-11T23:52:04.443Z,8.07
2022-10-11T23:55:08.840Z,7.38
2022-10-11T23:58:11.109Z,7.25
